createdAt,value
2024-02-17T00:03:37.173Z,100192.78
2024-02-17T00:08:40.551Z,100207.09
2024-02-17T00:13:45.972Z,100213.59
2024-02-17T00:18:49.444Z,100211.50
2024-02-17T00:23:52.647Z,100222.16
2024-02-17T00:28:58.682Z,100227.06
2024-02-17T00:34:01.977Z,100231.81
2024-02-17T00:39:06.361Z,100240.53
2024-02-17T00:44:10.936Z,100237.34
2024-02-17T00:49:14.204Z,100234.31
2024-02-17T00:54:17.758Z,100245.81
2024-02-17T00:59:22.362Z,100245.44
2024-02-17T01:04:25.681Z,100259.81
2024-02-17T01:09:29.200Z,100248.28
2024-02-17T01:14:34.110Z,100254.50
2024-02-17T01:19:37.309Z,100269.72
2024-02-17T01:24:40.616Z,100274.84
2024-02-17T01:29:45.242Z,100293.25
2024-02-17T01:34:48.355Z,100290.59
2024-02-17T01:39:51.706Z,100290.56
2024-02-17T01:44:56.398Z,100303.03
2024-02-17T01:50:00.218Z,100309.00
2024-02-17T01:55:05.170Z,100313.25
2024-02-17T02:00:11.901Z,100329.03
2024-02-17T02:05:15.608Z,100340.19
2024-02-17T02:10:19.054Z,100343.09
2024-02-17T02:15:29.891Z,100352.38
2024-02-17T02:20:40.602Z,100356.22
2024-02-17T02:25:52.135Z,100361.16
2024-02-17T02:30:57.451Z,100364.94
2024-02-17T02:36:00.606Z,100366.22
2024-02-17T02:41:05.218Z,100369.44
2024-02-17T02:46:08.751Z,100373.88
2024-02-17T02:51:12.471Z,100379.78
2024-02-17T02:56:17.280Z,100382.38
2024-02-17T03:01:20.860Z,100387.88
2024-02-17T03:06:25.352Z,100386.63
2024-02-17T03:11:30.128Z,100397.34
2024-02-17T03:16:33.330Z,100396.09
2024-02-17T03:21:37.685Z,100397.06
2024-02-17T03:26:42.997Z,100403.34
2024-02-17T03:31:47.753Z,100410.31
2024-02-17T03:36:51.216Z,100416.13
2024-02-17T03:41:56.481Z,100427.03
2024-02-17T03:46:59.696Z,100436.00
2024-02-17T03:52:02.949Z,100455.88
2024-02-17T03:57:07.555Z,100464.94
2024-02-17T04:02:10.722Z,100459.22
2024-02-17T04:07:13.936Z,100462.84
2024-02-17T04:12:18.962Z,100470.00
2024-02-17T04:17:22.384Z,100464.72
2024-02-17T04:22:26.388Z,100471.81
2024-02-17T04:27:31.088Z,100488.56
2024-02-17T04:32:34.417Z,100490.81
2024-02-17T04:37:38.428Z,100502.03
2024-02-17T04:42:43.127Z,100522.44
2024-02-17T04:47:46.425Z,100528.56
2024-02-17T04:52:49.740Z,100538.75
2024-02-17T04:57:54.957Z,100543.97
2024-02-17T05:02:58.333Z,100547.09
2024-02-17T05:08:01.600Z,100559.34
2024-02-17T05:13:06.871Z,100562.69
2024-02-17T05:18:10.304Z,100573.09
2024-02-17T05:23:13.531Z,100569.28
2024-02-17T05:28:18.093Z,100581.59
2024-02-17T05:33:21.685Z,100583.53
2024-02-17T05:38:25.055Z,100583.94
2024-02-17T05:43:29.971Z,100585.22
2024-02-17T05:48:33.288Z,100592.13
2024-02-17T05:53:36.541Z,100587.03
2024-02-17T05:58:41.095Z,100593.72
2024-02-17T06:03:44.470Z,100601.78
2024-02-17T06:08:47.609Z,100594.09
2024-02-17T06:13:54.929Z,100604.59
2024-02-17T06:19:16.536Z,100617.25
2024-02-17T06:24:20.016Z,100622.09
2024-02-17T06:29:24.665Z,100633.31
2024-02-17T06:34:28.078Z,100646.47
2024-02-17T06:39:31.629Z,100648.66
2024-02-17T06:44:36.112Z,100654.84
2024-02-17T06:49:39.577Z,100662.28
2024-02-17T06:54:43.153Z,100665.00
2024-02-17T06:59:47.702Z,100683.38
2024-02-17T07:04:50.952Z,100701.84
2024-02-17T07:09:54.271Z,100711.91
2024-02-17T07:14:58.919Z,100732.22
2024-02-17T07:20:02.246Z,100727.56
2024-02-17T07:25:06.406Z,100730.91
2024-02-17T07:30:12.279Z,100748.50
2024-02-17T07:35:15.606Z,100750.03
2024-02-17T07:40:19.115Z,100760.72
2024-02-17T07:45:23.809Z,100769.69
2024-02-17T07:50:27.241Z,100775.66
2024-02-17T07:55:31.337Z,100785.03
2024-02-17T08:00:36.066Z,100792.94
2024-02-17T08:05:39.713Z,100807.06
2024-02-17T08:10:43.113Z,100807.59
2024-02-17T08:15:47.772Z,100820.09
2024-02-17T08:20:52.222Z,100821.09
2024-02-17T08:25:55.539Z,100832.56
2024-02-17T08:31:00.165Z,100839.16
2024-02-17T08:36:03.383Z,100840.25
2024-02-17T08:41:06.690Z,100848.78
2024-02-17T08:46:11.248Z,100858.53
2024-02-17T08:51:14.487Z,100862.63
2024-02-17T08:56:17.593Z,100868.91
2024-02-17T09:01:22.175Z,100880.41
2024-02-17T09:06:25.534Z,100888.66
2024-02-17T09:11:28.774Z,100893.88
2024-02-17T09:16:33.414Z,100882.28
2024-02-17T09:21:37.511Z,100883.91
2024-02-17T09:26:41.531Z,100879.72
2024-02-17T09:31:46.585Z,100886.41
2024-02-17T09:36:49.982Z,100885.06
2024-02-17T09:41:53.137Z,100897.69
2024-02-17T09:46:58.404Z,100896.72
2024-02-17T09:52:02.404Z,100894.31
2024-02-17T09:57:07.318Z,100898.75
2024-02-17T10:02:13.134Z,100910.56
2024-02-17T10:07:16.297Z,100907.97
2024-02-17T10:12:19.613Z,100922.66
2024-02-17T10:17:24.849Z,100931.03
2024-02-17T10:22:28.048Z,100940.19
2024-02-17T10:27:33.284Z,100934.75
2024-02-17T10:32:38.427Z,100952.91
2024-02-17T10:37:42.348Z,100961.06
2024-02-17T10:42:47.977Z,100964.53
2024-02-17T10:48:01.369Z,100977.16
2024-02-17T10:53:11.232Z,100973.44
2024-02-17T10:58:18.274Z,100984.03
2024-02-17T11:03:25.698Z,100982.94
2024-02-17T11:08:29.644Z,100986.66
2024-02-17T11:13:33.148Z,100986.72
2024-02-17T11:18:40.413Z,100981.50
2024-02-17T11:23:44.356Z,100987.19
2024-02-17T11:28:48.194Z,100981.97
2024-02-17T11:33:55.152Z,100979.94
2024-02-17T11:39:00.771Z,100976.19
2024-02-17T11:44:04.888Z,100975.41
2024-02-17T11:49:12.870Z,100976.31
2024-02-17T11:54:16.733Z,100975.34
2024-02-17T11:59:20.068Z,100979.72
2024-02-17T12:04:24.704Z,100965.69
2024-02-17T12:09:27.960Z,100962.06
2024-02-17T12:14:31.272Z,100965.44
2024-02-17T12:19:36.564Z,100967.94
2024-02-17T12:24:39.952Z,100970.31
2024-02-17T12:29:52.577Z,100980.78
2024-02-17T12:34:57.680Z,100978.97
2024-02-17T12:40:00.925Z,100988.00
2024-02-17T12:45:05.142Z,100985.59
2024-02-17T12:50:19.141Z,100995.34
2024-02-17T12:55:23.360Z,101004.72
2024-02-17T13:00:26.538Z,101015.59
2024-02-17T13:05:31.157Z,101007.69
2024-02-17T13:10:34.927Z,101007.28
2024-02-17T13:15:38.155Z,101005.06
2024-02-17T13:20:42.861Z,101013.28
2024-02-17T13:25:46.070Z,101017.25
2024-02-17T13:30:49.350Z,101026.09
2024-02-17T13:35:54.170Z,101033.28
2024-02-17T13:40:57.866Z,101037.41
2024-02-17T13:46:01.518Z,101040.31
2024-02-17T13:51:06.829Z,101046.13
2024-02-17T13:56:10.261Z,101055.03
2024-02-17T14:01:14.952Z,101050.72
2024-02-17T14:06:20.970Z,101056.50
2024-02-17T14:11:24.666Z,101064.94
2024-02-17T14:16:28.053Z,101066.53
2024-02-17T14:21:33.273Z,101066.53
2024-02-17T14:26:36.545Z,101067.06
2024-02-17T14:31:43.134Z,101061.25
2024-02-17T14:36:47.954Z,101070.91
2024-02-17T14:41:51.088Z,101067.69
2024-02-17T14:46:54.299Z,101070.41
2024-02-17T14:52:00.375Z,101066.13
2024-02-17T14:57:04.144Z,101073.16
2024-02-17T15:02:08.107Z,101068.19
2024-02-17T15:07:12.870Z,101074.84
2024-02-17T15:12:16.696Z,101077.94
2024-02-17T15:17:20.359Z,101081.81
2024-02-17T15:22:25.512Z,101081.81
2024-02-17T15:27:28.824Z,101081.59
2024-02-17T15:32:32.302Z,101078.88
2024-02-17T15:37:37.122Z,101088.91
2024-02-17T15:42:40.385Z,101081.16
2024-02-17T15:47:44.104Z,101086.22
2024-02-17T15:52:48.710Z,101089.06
2024-02-17T15:57:53.972Z,101083.03
2024-02-17T16:02:57.971Z,101082.59
2024-02-17T16:08:04.206Z,101093.09
2024-02-17T16:13:07.608Z,101090.75
2024-02-17T16:18:10.838Z,101093.09
2024-02-17T16:23:17.749Z,101102.94
2024-02-17T16:28:21.005Z,101101.72
2024-02-17T16:33:25.757Z,101098.72
2024-02-17T16:38:30.783Z,101116.97
2024-02-17T16:43:34.062Z,101123.03
2024-02-17T16:48:37.659Z,101134.34
2024-02-17T16:53:43.455Z,101129.19
2024-02-17T16:58:46.665Z,101146.16
2024-02-17T17:03:50.050Z,101144.25
2024-02-17T17:08:54.712Z,101157.75
2024-02-17T17:13:58.143Z,101169.66
2024-02-17T17:19:01.631Z,101174.06
2024-02-17T17:24:06.914Z,101185.47
2024-02-17T17:29:10.165Z,101196.88
2024-02-17T17:34:13.578Z,101192.00
2024-02-17T17:39:18.556Z,101196.16
2024-02-17T17:44:21.909Z,101200.28
2024-02-17T17:49:25.379Z,101206.91
2024-02-17T17:54:30.307Z,101206.41
2024-02-17T17:59:35.505Z,101206.59
2024-02-17T18:04:39.212Z,101210.53
2024-02-17T18:09:44.401Z,101208.69
2024-02-17T18:14:47.759Z,101210.97
2024-02-17T18:19:53.714Z,101217.34
2024-02-17T18:24:58.855Z,101230.25
2024-02-17T18:30:02.342Z,101237.63
2024-02-17T18:35:07.170Z,101232.53
2024-02-17T18:40:12.668Z,101244.78
2024-02-17T18:45:16.464Z,101232.63
2024-02-17T18:50:19.753Z,101236.53
2024-02-17T18:55:24.697Z,101246.59
2024-02-17T19:00:28.261Z,101245.63
2024-02-17T19:05:32.520Z,101245.44
2024-02-17T19:10:37.279Z,101244.66
2024-02-17T19:15:40.721Z,101244.56
2024-02-17T19:20:45.305Z,101231.13
2024-02-17T19:25:50.565Z,101243.88
2024-02-17T19:30:53.967Z,101231.53
2024-02-17T19:35:57.747Z,101245.38
2024-02-17T19:41:02.908Z,101241.25
2024-02-17T19:46:06.297Z,101245.28
2024-02-17T19:51:09.529Z,101247.34
2024-02-17T19:56:15.074Z,101247.53
2024-02-17T20:01:22.581Z,101250.66
2024-02-17T20:06:26.576Z,101254.66
2024-02-17T20:11:31.577Z,101245.31
2024-02-17T20:16:34.717Z,101245.91
2024-02-17T20:21:39.824Z,101260.22
2024-02-17T20:26:44.394Z,101256.97
2024-02-17T20:31:47.609Z,101268.19
2024-02-17T20:36:52.693Z,101273.59
2024-02-17T20:41:57.345Z,101277.03
2024-02-17T20:47:00.823Z,101276.31
2024-02-17T20:52:04.519Z,101274.56
2024-02-17T20:57:10.954Z,101266.91
2024-02-17T21:02:14.549Z,101267.56
2024-02-17T21:07:17.830Z,101271.84
2024-02-17T21:12:22.543Z,101263.13
2024-02-17T21:17:26.183Z,101267.56
2024-02-17T21:22:29.687Z,101276.38
2024-02-17T21:27:34.453Z,101265.75
2024-02-17T21:32:37.898Z,101254.31
2024-02-17T21:37:41.330Z,101254.75
2024-02-17T21:42:45.841Z,101255.81
2024-02-17T21:47:49.081Z,101263.91
2024-02-17T21:52:52.298Z,101264.88
2024-02-17T21:57:57.031Z,101277.84
2024-02-17T22:03:00.207Z,101272.53
2024-02-17T22:08:03.378Z,101280.78
2024-02-17T22:13:07.908Z,101290.84
2024-02-17T22:18:11.092Z,101292.56
2024-02-17T22:23:14.252Z,101285.41
2024-02-17T22:28:18.731Z,101280.19
2024-02-17T22:33:21.977Z,101283.69
2024-02-17T22:38:25.088Z,101278.44
2024-02-17T22:43:29.566Z,101268.91
2024-02-17T22:48:33.155Z,101273.66
2024-02-17T22:53:36.406Z,101261.69
2024-02-17T22:58:40.830Z,101260.56
2024-02-17T23:03:44.093Z,101266.16
2024-02-17T23:08:47.257Z,101262.56
2024-02-17T23:13:51.734Z,101269.81
2024-02-17T23:18:55.469Z,101263.34
2024-02-17T23:23:58.713Z,101272.03
2024-02-17T23:29:03.221Z,101275.59
2024-02-17T23:34:06.447Z,101277.34
2024-02-17T23:39:09.712Z,101278.13
2024-02-17T23:44:14.261Z,101283.25
2024-02-17T23:49:17.521Z,101272.50
2024-02-17T23:54:21.268Z,101278.78
2024-02-17T23:59:25.930Z,101281.50
